createdAt,value
2023-05-21T00:01:25.982Z,6.65
2023-05-21T00:03:53.538Z,5.63
2023-05-21T00:06:21.303Z,4.60
2023-05-21T00:08:48.445Z,5.13
2023-05-21T00:11:15.490Z,7.10
2023-05-21T00:13:42.586Z,5.75
2023-05-21T00:16:11.398Z,5.28
2023-05-21T00:18:39.632Z,5.13
2023-05-21T00:21:06.905Z,4.75
2023-05-21T00:23:34.339Z,7.63
2023-05-21T00:26:01.479Z,7.15
2023-05-21T00:28:28.478Z,9.43
2023-05-21T00:30:55.754Z,7.30
2023-05-21T00:33:22.888Z,4.70
2023-05-21T00:35:49.939Z,5.13
2023-05-21T00:38:18.017Z,7.43
2023-05-21T00:40:45.112Z,4.95
2023-05-21T00:43:14.437Z,5.53
2023-05-21T00:45:48.508Z,4.57
2023-05-21T00:48:16.113Z,6.63
2023-05-21T00:50:43.091Z,5.38
2023-05-21T00:53:10.967Z,6.30
2023-05-21T00:55:38.357Z,7.20
2023-05-21T00:58:06.048Z,5.88
2023-05-21T01:00:33.995Z,7.18
2023-05-21T01:03:01.504Z,7.90
2023-05-21T01:05:31.557Z,6.45
2023-05-21T01:07:58.774Z,7.60
2023-05-21T01:10:25.991Z,7.13
2023-05-21T01:12:53.064Z,6.43
2023-05-21T01:15:20.036Z,6.30
2023-05-21T01:17:48.968Z,6.25
2023-05-21T01:20:18.387Z,5.90
2023-05-21T01:22:55.466Z,5.55
2023-05-21T01:25:24.346Z,5.72
2023-05-21T01:27:51.793Z,7.43
2023-05-21T01:30:19.343Z,5.55
2023-05-21T01:33:15.995Z,5.60
2023-05-21T01:35:47.749Z,8.93
2023-05-21T01:38:15.738Z,6.03
2023-05-21T01:41:03.871Z,7.38
2023-05-21T01:43:35.053Z,7.78
2023-05-21T01:46:02.149Z,7.90
2023-05-21T01:48:29.744Z,10.73
2023-05-21T01:51:00.147Z,9.85
2023-05-21T01:53:27.175Z,7.68
2023-05-21T01:55:54.757Z,8.70
2023-05-21T01:58:23.051Z,8.98
2023-05-21T02:00:52.637Z,8.25
2023-05-21T02:03:20.391Z,6.35
2023-05-21T02:05:47.554Z,6.05
2023-05-21T02:08:15.589Z,9.52
2023-05-21T02:10:42.644Z,6.28
2023-05-21T02:13:09.805Z,6.40
2023-05-21T02:15:37.047Z,10.63
2023-05-21T02:18:04.627Z,7.72
2023-05-21T02:20:31.834Z,6.88
2023-05-21T02:23:03.590Z,9.82
2023-05-21T02:25:30.761Z,9.82
2023-05-21T02:27:57.786Z,11.85
2023-05-21T02:30:24.863Z,10.07
2023-05-21T02:32:51.858Z,8.73
2023-05-21T02:35:18.872Z,12.43
2023-05-21T02:37:45.845Z,10.27
2023-05-21T02:40:13.071Z,8.77
2023-05-21T02:42:40.533Z,8.73
2023-05-21T02:45:11.839Z,8.68
2023-05-21T02:47:41.587Z,8.93
2023-05-21T02:50:09.082Z,10.18
2023-05-21T02:52:42.683Z,10.27
2023-05-21T02:55:09.889Z,9.38
2023-05-21T02:57:36.959Z,8.95
2023-05-21T03:00:06.255Z,11.20
2023-05-21T03:02:34.213Z,12.98
2023-05-21T03:05:01.334Z,8.50
2023-05-21T03:07:28.391Z,12.32
2023-05-21T03:09:55.581Z,8.10
2023-05-21T03:12:22.611Z,11.43
2023-05-21T03:14:51.520Z,9.05
2023-05-21T03:17:20.750Z,10.55
2023-05-21T03:19:49.348Z,12.40
2023-05-21T03:22:16.842Z,8.80
2023-05-21T03:24:45.318Z,10.90
2023-05-21T03:27:13.818Z,9.88
2023-05-21T03:29:40.829Z,12.43
2023-05-21T03:32:08.636Z,13.52
2023-05-21T03:34:36.081Z,11.25
2023-05-21T03:37:03.614Z,9.20
2023-05-21T03:39:32.074Z,11.02
2023-05-21T03:41:59.960Z,8.43
2023-05-21T03:44:53.233Z,8.80
2023-05-21T03:47:38.582Z,9.38
2023-05-21T03:50:09.560Z,11.52
2023-05-21T03:52:37.106Z,12.27
2023-05-21T03:55:05.108Z,14.88
2023-05-21T03:57:32.204Z,13.55
2023-05-21T03:59:59.576Z,15.50
2023-05-21T04:02:27.697Z,14.48
2023-05-21T04:04:56.233Z,12.85
2023-05-21T04:07:24.807Z,13.18
2023-05-21T04:09:51.828Z,12.32
2023-05-21T04:12:22.574Z,14.25
2023-05-21T04:14:49.689Z,19.38
2023-05-21T04:17:16.699Z,12.38
2023-05-21T04:19:44.478Z,16.35
2023-05-21T04:22:12.315Z,10.02
2023-05-21T04:24:39.849Z,12.02
2023-05-21T04:27:25.705Z,9.45
2023-05-21T04:29:54.928Z,16.33
2023-05-21T04:32:24.239Z,14.32
2023-05-21T04:34:51.390Z,15.48
2023-05-21T04:37:18.345Z,10.63
2023-05-21T04:39:45.799Z,12.02
2023-05-21T04:42:12.971Z,14.85
2023-05-21T04:44:41.624Z,13.75
2023-05-21T04:47:10.619Z,13.15
2023-05-21T04:49:37.676Z,13.02
2023-05-21T04:52:05.643Z,9.85
2023-05-21T04:54:32.747Z,10.20
2023-05-21T04:57:01.402Z,9.40
2023-05-21T04:59:28.462Z,13.90
2023-05-21T05:01:55.680Z,11.40
2023-05-21T05:04:23.655Z,10.18
2023-05-21T05:06:52.034Z,16.50
2023-05-21T05:09:19.438Z,12.63
2023-05-21T05:11:46.424Z,13.35
2023-05-21T05:14:14.236Z,13.32
2023-05-21T05:16:43.065Z,13.43
2023-05-21T05:19:10.610Z,9.48
2023-05-21T05:21:37.967Z,11.63
2023-05-21T05:24:05.490Z,11.85
2023-05-21T05:26:32.683Z,11.93
2023-05-21T05:29:00.399Z,10.70
2023-05-21T05:31:27.524Z,12.95
2023-05-21T05:33:55.067Z,12.95
2023-05-21T05:38:52.799Z,12.48
2023-05-21T05:41:19.812Z,11.88
2023-05-21T05:43:48.885Z,10.52
2023-05-21T05:46:17.014Z,12.60
2023-05-21T05:48:45.162Z,8.35
2023-05-21T05:51:12.250Z,11.18
2023-05-21T05:53:39.261Z,10.88
2023-05-21T05:56:06.854Z,9.20
2023-05-21T05:58:33.895Z,12.00
2023-05-21T06:01:10.128Z,10.57
2023-05-21T06:03:37.282Z,12.35
2023-05-21T06:06:12.224Z,11.55
2023-05-21T06:08:40.751Z,9.40
2023-05-21T06:11:07.803Z,11.18
2023-05-21T06:13:34.802Z,9.27
2023-05-21T06:16:03.888Z,10.47
2023-05-21T06:18:30.987Z,10.63
2023-05-21T06:20:57.988Z,10.93
2023-05-21T06:23:25.399Z,8.27
2023-05-21T06:25:53.048Z,6.88
2023-05-21T06:28:20.660Z,7.30
2023-05-21T06:30:49.102Z,7.30
2023-05-21T06:33:18.305Z,8.38
2023-05-21T06:35:45.361Z,9.95
2023-05-21T06:38:12.878Z,7.07
2023-05-21T06:40:39.975Z,10.27
2023-05-21T06:43:10.875Z,10.45
2023-05-21T06:45:56.398Z,7.30
2023-05-21T06:48:35.004Z,8.60
2023-05-21T06:51:02.026Z,9.88
2023-05-21T06:53:29.091Z,6.18
2023-05-21T06:55:56.121Z,6.93
2023-05-21T06:58:35.362Z,6.53
2023-05-21T07:01:02.697Z,5.60
2023-05-21T07:03:30.223Z,9.38
2023-05-21T07:06:00.595Z,7.28
2023-05-21T07:08:27.659Z,6.35
2023-05-21T07:10:56.588Z,7.85
2023-05-21T07:13:23.794Z,7.75
2023-05-21T07:15:51.027Z,9.48
2023-05-21T07:18:18.990Z,9.40
2023-05-21T07:20:45.988Z,8.45
2023-05-21T07:23:15.631Z,8.40
2023-05-21T07:25:42.632Z,7.28
2023-05-21T07:28:09.729Z,7.00
2023-05-21T07:30:37.260Z,6.75
2023-05-21T07:33:09.323Z,7.70
2023-05-21T07:35:36.872Z,6.45
2023-05-21T07:38:04.947Z,4.97
2023-05-21T07:40:32.260Z,7.25
2023-05-21T07:43:01.133Z,7.95
2023-05-21T07:45:30.422Z,7.03
2023-05-21T07:47:57.566Z,7.22
2023-05-21T07:50:25.905Z,6.57
2023-05-21T07:52:53.380Z,5.72
2023-05-21T07:55:21.412Z,6.60
2023-05-21T07:57:48.634Z,6.88
2023-05-21T08:00:19.344Z,6.05
2023-05-21T08:02:52.962Z,6.60
2023-05-21T08:05:21.663Z,5.10
2023-05-21T08:07:50.894Z,6.25
2023-05-21T08:10:19.472Z,5.63
2023-05-21T08:12:48.410Z,5.25
2023-05-21T08:15:15.558Z,5.00
2023-05-21T08:17:45.512Z,6.25
2023-05-21T08:20:14.537Z,5.80
2023-05-21T08:22:43.885Z,4.95
2023-05-21T08:25:11.673Z,4.93
2023-05-21T08:27:38.844Z,5.57
2023-05-21T08:30:07.098Z,6.20
2023-05-21T08:32:35.364Z,4.07
2023-05-21T08:35:02.464Z,5.55
2023-05-21T08:37:55.742Z,4.80
2023-05-21T08:40:31.083Z,5.18
2023-05-21T08:42:58.241Z,5.35
2023-05-21T08:45:44.801Z,4.63
2023-05-21T08:48:14.593Z,4.20
2023-05-21T08:50:41.707Z,3.80
2023-05-21T08:53:26.631Z,4.00
2023-05-21T08:55:57.470Z,4.05
2023-05-21T08:58:33.895Z,5.25
2023-05-21T09:01:01.514Z,4.47
2023-05-21T09:03:29.647Z,4.25
2023-05-21T09:05:56.970Z,3.88
2023-05-21T09:08:30.073Z,3.63
2023-05-21T09:11:17.330Z,3.38
2023-05-21T09:13:50.996Z,3.78
2023-05-21T09:16:24.752Z,3.90
2023-05-21T09:18:52.221Z,3.40
2023-05-21T09:21:27.874Z,4.00
2023-05-21T09:23:59.771Z,4.72
2023-05-21T09:26:27.019Z,4.63
2023-05-21T09:28:59.686Z,3.42
2023-05-21T09:31:27.522Z,4.30
2023-05-21T09:33:55.847Z,7.50
2023-05-21T09:36:24.873Z,3.35
2023-05-21T09:38:52.377Z,5.28
2023-05-21T09:41:21.959Z,3.83
2023-05-21T09:43:49.701Z,4.50
2023-05-21T09:46:17.245Z,5.47
2023-05-21T09:48:44.497Z,4.80
2023-05-21T09:51:16.707Z,3.22
2023-05-21T09:53:51.747Z,4.90
2023-05-21T09:56:23.615Z,4.00
2023-05-21T09:58:57.715Z,6.38
2023-05-21T10:01:25.188Z,2.97
2023-05-21T10:03:57.181Z,3.97
2023-05-21T10:06:31.525Z,3.58
2023-05-21T10:09:01.163Z,4.30
2023-05-21T10:11:31.435Z,5.70
2023-05-21T10:14:04.986Z,3.63
2023-05-21T10:16:33.034Z,5.43
2023-05-21T10:19:00.293Z,3.92
2023-05-21T10:21:27.801Z,4.78
2023-05-21T10:23:58.210Z,2.97
2023-05-21T10:26:25.310Z,4.65
2023-05-21T10:28:52.425Z,4.80
2023-05-21T10:31:19.509Z,5.05
2023-05-21T10:33:46.533Z,5.97
2023-05-21T10:36:13.623Z,7.47
2023-05-21T10:38:40.654Z,4.18
2023-05-21T10:41:07.750Z,5.60
2023-05-21T10:44:02.912Z,5.22
2023-05-21T10:46:43.692Z,5.45
2023-05-21T10:49:35.327Z,6.35
2023-05-21T10:52:17.557Z,6.85
2023-05-21T10:55:02.276Z,6.18
2023-05-21T10:57:35.201Z,4.88
2023-05-21T11:00:02.273Z,5.45
2023-05-21T11:02:29.341Z,4.93
2023-05-21T11:05:00.550Z,5.70
2023-05-21T11:07:50.749Z,5.72
2023-05-21T11:10:40.772Z,5.25
2023-05-21T11:13:15.157Z,5.72
2023-05-21T11:16:05.531Z,4.90
2023-05-21T11:18:38.635Z,5.03
2023-05-21T11:21:17.196Z,5.53
2023-05-21T11:23:54.064Z,5.13
2023-05-21T11:26:25.035Z,5.32
2023-05-21T11:29:12.316Z,5.40
2023-05-21T11:31:39.696Z,4.50
2023-05-21T11:34:19.979Z,4.30
2023-05-21T11:36:47.737Z,3.42
2023-05-21T11:39:22.321Z,3.72
2023-05-21T11:42:04.372Z,5.63
2023-05-21T11:44:41.828Z,5.30
2023-05-21T11:47:09.803Z,5.47
2023-05-21T11:49:37.097Z,5.57
2023-05-21T11:52:05.127Z,4.90
2023-05-21T11:54:34.309Z,8.27
2023-05-21T11:57:02.106Z,9.57
2023-05-21T11:59:29.161Z,7.65
2023-05-21T12:01:56.561Z,3.95
2023-05-21T12:04:23.613Z,4.57
2023-05-21T12:06:50.934Z,6.85
2023-05-21T12:09:17.950Z,6.75
2023-05-21T12:11:44.957Z,8.30
2023-05-21T12:14:12.087Z,6.00
2023-05-21T12:16:39.647Z,4.78
2023-05-21T12:19:06.957Z,6.25
2023-05-21T12:21:34.140Z,5.97
2023-05-21T12:24:01.204Z,4.82
2023-05-21T12:26:28.201Z,5.40
2023-05-21T12:28:55.360Z,7.60
2023-05-21T12:31:23.185Z,6.53
2023-05-21T12:33:53.622Z,5.13
2023-05-21T12:36:27.821Z,7.30
2023-05-21T12:38:55.046Z,5.75
2023-05-21T12:41:22.965Z,7.38
2023-05-21T12:43:51.022Z,6.07
2023-05-21T12:46:19.030Z,12.95
2023-05-21T12:48:51.702Z,9.30
2023-05-21T12:51:18.827Z,7.85
2023-05-21T12:53:45.862Z,6.25
2023-05-21T12:56:13.727Z,6.32
2023-05-21T12:58:41.126Z,6.90
2023-05-21T13:01:09.251Z,7.15
2023-05-21T13:03:37.292Z,5.80
2023-05-21T13:06:07.078Z,8.68
2023-05-21T13:08:37.146Z,5.90
2023-05-21T13:11:04.273Z,6.85
2023-05-21T13:13:31.426Z,6.20
2023-05-21T13:16:00.708Z,7.50
2023-05-21T13:18:27.858Z,6.40
2023-05-21T13:20:54.843Z,6.85
2023-05-21T13:23:21.823Z,7.22
2023-05-21T13:25:48.754Z,5.60
2023-05-21T13:28:17.188Z,6.35
2023-05-21T13:30:44.359Z,6.50
2023-05-21T13:33:12.373Z,6.18
2023-05-21T13:35:39.439Z,5.53
2023-05-21T13:38:06.515Z,5.90
2023-05-21T13:40:33.526Z,6.78
2023-05-21T13:43:00.545Z,5.43
2023-05-21T13:45:29.524Z,7.18
2023-05-21T13:47:56.708Z,10.40
2023-05-21T13:50:24.192Z,7.95
2023-05-21T13:52:51.186Z,5.25
2023-05-21T13:55:19.068Z,6.45
2023-05-21T13:57:46.304Z,5.55
2023-05-21T14:00:15.605Z,7.65
2023-05-21T14:02:43.609Z,5.10
2023-05-21T14:05:11.166Z,8.07
2023-05-21T14:07:38.222Z,8.40
2023-05-21T14:10:05.871Z,5.10
2023-05-21T14:12:33.569Z,5.35
2023-05-21T14:15:00.709Z,3.67
2023-05-21T14:17:27.781Z,4.55
2023-05-21T14:19:55.953Z,6.13
2023-05-21T14:22:23.051Z,5.78
2023-05-21T14:24:50.850Z,4.32
2023-05-21T14:27:17.929Z,7.55
2023-05-21T14:29:44.999Z,6.30
2023-05-21T14:32:12.015Z,4.90
2023-05-21T14:34:40.586Z,6.55
2023-05-21T14:37:07.680Z,4.70
2023-05-21T14:39:34.637Z,7.60
2023-05-21T14:42:04.096Z,4.80
2023-05-21T14:46:58.292Z,8.88
2023-05-21T14:49:25.275Z,5.28
2023-05-21T14:51:52.349Z,9.82
2023-05-21T14:54:19.402Z,6.50
2023-05-21T14:56:46.444Z,6.13
2023-05-21T14:59:14.469Z,5.05
2023-05-21T15:01:41.532Z,6.80
2023-05-21T15:04:08.733Z,5.93
2023-05-21T15:06:36.002Z,6.38
2023-05-21T15:09:03.109Z,5.30
2023-05-21T15:11:30.125Z,9.63
2023-05-21T15:13:57.152Z,5.45
2023-05-21T15:16:24.247Z,4.47
2023-05-21T15:18:51.485Z,7.10
2023-05-21T15:21:18.573Z,5.40
2023-05-21T15:23:45.862Z,5.82
2023-05-21T15:26:12.834Z,4.10
2023-05-21T15:28:39.875Z,7.28
2023-05-21T15:31:07.010Z,5.47
2023-05-21T15:33:34.040Z,5.95
2023-05-21T15:36:01.127Z,6.47
2023-05-21T15:38:28.274Z,7.65
2023-05-21T15:40:55.787Z,5.55
2023-05-21T15:43:22.853Z,5.45
2023-05-21T15:45:49.852Z,4.88
2023-05-21T15:48:22.733Z,5.05
2023-05-21T15:50:50.198Z,6.22
2023-05-21T15:53:17.209Z,4.15
2023-05-21T15:55:44.978Z,6.03
2023-05-21T15:58:11.992Z,5.65
2023-05-21T16:00:39.150Z,6.65
2023-05-21T16:03:06.379Z,5.93
2023-05-21T16:05:33.546Z,6.90
2023-05-21T16:08:00.608Z,3.70
2023-05-21T16:10:27.636Z,7.22
2023-05-21T16:12:54.633Z,4.30
2023-05-21T16:15:21.696Z,5.00
2023-05-21T16:17:48.690Z,5.88
2023-05-21T16:20:17.310Z,6.50
2023-05-21T16:22:44.611Z,5.22
2023-05-21T16:25:11.622Z,10.05
2023-05-21T16:27:38.697Z,5.32
2023-05-21T16:30:07.607Z,5.60
2023-05-21T16:32:34.827Z,5.82
2023-05-21T16:35:01.821Z,5.63
2023-05-21T16:37:28.887Z,5.90
2023-05-21T16:39:55.919Z,7.50
2023-05-21T16:42:22.985Z,5.55
2023-05-21T16:44:50.021Z,4.38
2023-05-21T16:47:17.078Z,7.00
2023-05-21T16:49:44.071Z,5.55
2023-05-21T16:52:11.098Z,8.25
2023-05-21T16:54:38.327Z,6.47
2023-05-21T16:57:05.461Z,7.55
2023-05-21T16:59:32.488Z,9.68
2023-05-21T17:01:59.552Z,5.93
2023-05-21T17:04:26.785Z,5.05
2023-05-21T17:06:53.752Z,5.30
2023-05-21T17:09:20.891Z,4.45
2023-05-21T17:11:47.900Z,6.85
2023-05-21T17:14:23.222Z,5.10
2023-05-21T17:16:59.848Z,7.13
2023-05-21T17:19:26.897Z,4.75
2023-05-21T17:21:55.518Z,4.55
2023-05-21T17:24:22.534Z,6.50
2023-05-21T17:26:49.494Z,6.40
2023-05-21T17:29:16.588Z,5.55
2023-05-21T17:31:43.653Z,5.72
2023-05-21T17:34:10.823Z,6.20
2023-05-21T17:36:37.848Z,5.15
2023-05-21T17:39:04.872Z,6.88
2023-05-21T17:41:31.914Z,21.65
2023-05-21T17:43:58.968Z,13.68
2023-05-21T17:46:26.001Z,25.27
2023-05-21T17:48:53.309Z,8.05
2023-05-21T17:51:20.254Z,5.85
2023-05-21T17:53:47.198Z,7.05
2023-05-21T17:56:14.208Z,6.90
2023-05-21T17:58:41.151Z,7.03
2023-05-21T18:01:08.268Z,7.35
2023-05-21T18:03:35.270Z,5.15
2023-05-21T18:06:02.296Z,9.07
2023-05-21T18:08:29.311Z,5.47
2023-05-21T18:10:56.303Z,6.97
2023-05-21T18:13:23.345Z,6.32
2023-05-21T18:15:50.675Z,7.88
2023-05-21T18:18:20.673Z,6.72
2023-05-21T18:20:49.189Z,5.65
2023-05-21T18:23:16.499Z,6.15
2023-05-21T18:25:43.532Z,7.47
2023-05-21T18:28:10.610Z,7.07
2023-05-21T18:30:37.971Z,6.07
2023-05-21T18:33:05.176Z,6.13
2023-05-21T18:35:32.234Z,5.07
2023-05-21T18:37:59.257Z,6.10
2023-05-21T18:40:30.391Z,6.43
2023-05-21T18:42:57.741Z,8.45
2023-05-21T18:45:24.729Z,5.70
2023-05-21T18:47:51.908Z,6.40
2023-05-21T18:50:19.648Z,7.45
2023-05-21T18:52:47.015Z,8.63
2023-05-21T18:55:14.469Z,4.65
2023-05-21T18:57:41.509Z,5.70
2023-05-21T19:00:09.866Z,4.63
2023-05-21T19:02:37.394Z,4.63
2023-05-21T19:05:04.679Z,4.72
2023-05-21T19:07:31.755Z,6.38
2023-05-21T19:10:00.428Z,6.32
2023-05-21T19:12:29.463Z,6.70
2023-05-21T19:14:56.562Z,5.38
2023-05-21T19:17:23.683Z,7.40
2023-05-21T19:19:55.879Z,5.32
2023-05-21T19:22:26.483Z,4.88
2023-05-21T19:24:53.454Z,6.60
2023-05-21T19:27:20.855Z,6.95
2023-05-21T19:29:48.064Z,6.53
2023-05-21T19:32:16.377Z,4.97
2023-05-21T19:34:43.475Z,8.32
2023-05-21T19:37:10.529Z,6.65
2023-05-21T19:39:38.721Z,5.88
2023-05-21T19:42:06.573Z,5.72
2023-05-21T19:44:33.814Z,5.45
2023-05-21T19:47:01.548Z,5.90
2023-05-21T19:49:28.596Z,7.70
2023-05-21T19:51:56.282Z,6.68
2023-05-21T19:54:23.390Z,6.40
2023-05-21T19:56:50.966Z,8.90
2023-05-21T19:59:18.458Z,4.80
2023-05-21T20:01:45.548Z,7.00
2023-05-21T20:04:12.956Z,7.43
2023-05-21T20:06:40.100Z,6.18
2023-05-21T20:09:07.447Z,5.60
2023-05-21T20:11:34.794Z,4.38
2023-05-21T20:14:02.403Z,7.43
2023-05-21T20:16:30.190Z,5.07
2023-05-21T20:18:58.329Z,5.63
2023-05-21T20:21:25.678Z,8.65
2023-05-21T20:23:53.242Z,5.13
2023-05-21T20:26:20.268Z,8.25
2023-05-21T20:28:47.304Z,6.18
2023-05-21T20:31:14.521Z,4.45
2023-05-21T20:33:42.038Z,5.35
2023-05-21T20:36:09.207Z,6.32
2023-05-21T20:38:38.341Z,5.22
2023-05-21T20:41:05.489Z,6.20
2023-05-21T20:43:33.088Z,5.47
2023-05-21T20:46:00.152Z,5.45
2023-05-21T20:48:29.499Z,4.88
2023-05-21T20:50:57.654Z,4.63
2023-05-21T20:53:25.193Z,5.35
2023-05-21T20:55:54.917Z,5.78
2023-05-21T21:00:50.572Z,3.83
2023-05-21T21:03:18.404Z,5.38
2023-05-21T21:05:45.622Z,4.63
2023-05-21T21:08:12.588Z,3.58
2023-05-21T21:10:41.519Z,6.13
2023-05-21T21:13:09.137Z,5.15
2023-05-21T21:15:36.513Z,5.40
2023-05-21T21:18:03.748Z,4.85
2023-05-21T21:20:30.956Z,5.25
2023-05-21T21:22:57.970Z,3.92
2023-05-21T21:25:25.099Z,4.50
2023-05-21T21:27:52.078Z,5.35
2023-05-21T21:30:19.139Z,6.15
2023-05-21T21:32:47.742Z,4.03
2023-05-21T21:35:14.838Z,6.88
2023-05-21T21:37:41.806Z,7.60
2023-05-21T21:40:09.392Z,7.78
2023-05-21T21:42:36.617Z,6.57
2023-05-21T21:45:04.726Z,8.38
2023-05-21T21:47:31.916Z,5.82
2023-05-21T21:49:59.112Z,5.90
2023-05-21T21:52:27.613Z,5.05
2023-05-21T21:54:57.737Z,6.10
2023-05-21T21:57:27.584Z,6.45
2023-05-21T21:59:54.596Z,8.50
2023-05-21T22:02:21.572Z,10.45
2023-05-21T22:04:48.629Z,6.95
2023-05-21T22:07:18.025Z,3.42
2023-05-21T22:09:45.438Z,6.30
2023-05-21T22:12:12.962Z,7.75
2023-05-21T22:14:39.949Z,5.28
2023-05-21T22:17:08.701Z,4.22
2023-05-21T22:19:36.108Z,4.90
2023-05-21T22:22:04.609Z,5.57
2023-05-21T22:24:33.188Z,4.30
2023-05-21T22:27:00.708Z,4.00
2023-05-21T22:29:27.769Z,6.10
2023-05-21T22:31:54.745Z,5.55
2023-05-21T22:34:23.132Z,4.68
2023-05-21T22:36:50.107Z,6.15
2023-05-21T22:39:17.763Z,8.10
2023-05-21T22:41:45.172Z,7.07
2023-05-21T22:44:12.135Z,4.45
2023-05-21T22:46:39.210Z,6.55
2023-05-21T22:49:06.491Z,6.85
2023-05-21T22:51:34.979Z,5.05
2023-05-21T22:54:02.248Z,3.38
2023-05-21T22:56:29.372Z,4.03
2023-05-21T22:58:56.541Z,4.00
2023-05-21T23:01:23.674Z,5.57
2023-05-21T23:03:51.505Z,9.95
2023-05-21T23:06:18.599Z,4.95
2023-05-21T23:08:45.685Z,6.32
2023-05-21T23:11:12.681Z,4.47
2023-05-21T23:13:39.680Z,6.03
2023-05-21T23:16:07.478Z,4.15
2023-05-21T23:18:35.387Z,8.15
2023-05-21T23:21:02.502Z,5.80
2023-05-21T23:23:29.685Z,6.97
2023-05-21T23:25:57.899Z,6.70
2023-05-21T23:28:25.797Z,5.82
2023-05-21T23:30:52.839Z,11.57
2023-05-21T23:33:20.053Z,5.43
2023-05-21T23:35:47.043Z,7.72
2023-05-21T23:38:14.046Z,7.15
2023-05-21T23:40:41.527Z,5.20
2023-05-21T23:43:08.557Z,6.07
2023-05-21T23:45:35.633Z,6.07
2023-05-21T23:48:02.756Z,6.18
2023-05-21T23:50:29.873Z,5.40
2023-05-21T23:52:56.842Z,7.65
2023-05-21T23:55:23.872Z,7.38
2023-05-21T23:57:50.874Z,8.10
